sensor_id;sensor_type;location;lat;lon;timestamp;P1;durP1;ratioP1;P2;durP2;ratioP2
61702;SDS011;47622;47.726;3.298;2022-10-23T00:03:42;6.45;;;2.60;;
61702;SDS011;47622;47.726;3.298;2022-10-23T00:06:08;8.25;;;2.92;;
61702;SDS011;47622;47.726;3.298;2022-10-23T00:08:35;6.35;;;3.10;;
61702;SDS011;47622;47.726;3.298;2022-10-23T00:11:04;3.42;;;2.50;;
61702;SDS011;47622;47.726;3.298;2022-10-23T00:13:35;6.55;;;2.65;;
61702;SDS011;47622;47.726;3.298;2022-10-23T00:16:01;3.95;;;2.42;;
61702;SDS011;47622;47.726;3.298;2022-10-23T00:18:27;6.18;;;3.15;;
61702;SDS011;47622;47.726;3.298;2022-10-23T00:20:52;3.95;;;2.47;;
61702;SDS011;47622;47.726;3.298;2022-10-23T00:23:18;4.90;;;2.47;;
61702;SDS011;47622;47.726;3.298;2022-10-23T00:25:44;4.80;;;2.20;;
61702;SDS011;47622;47.726;3.298;2022-10-23T00:28:09;3.47;;;2.60;;
61702;SDS011;47622;47.726;3.298;2022-10-23T00:30:35;4.82;;;2.50;;
61702;SDS011;47622;47.726;3.298;2022-10-23T00:33:00;5.80;;;2.30;;
61702;SDS011;47622;47.726;3.298;2022-10-23T00:35:26;6.68;;;2.60;;
61702;SDS011;47622;47.726;3.298;2022-10-23T00:37:52;8.13;;;2.38;;
61702;SDS011;47622;47.726;3.298;2022-10-23T00:40:17;6.00;;;2.83;;
61702;SDS011;47622;47.726;3.298;2022-10-23T00:42:43;4.50;;;2.85;;
61702;SDS011;47622;47.726;3.298;2022-10-23T00:45:20;8.10;;;3.00;;
61702;SDS011;47622;47.726;3.298;2022-10-23T00:47:48;6.47;;;3.28;;
61702;SDS011;47622;47.726;3.298;2022-10-23T00:50:14;5.47;;;3.00;;
61702;SDS011;47622;47.726;3.298;2022-10-23T00:52:43;6.35;;;2.60;;
61702;SDS011;47622;47.726;3.298;2022-10-23T00:55:12;7.53;;;2.63;;
61702;SDS011;47622;47.726;3.298;2022-10-23T00:57:40;4.45;;;2.30;;
61702;SDS011;47622;47.726;3.298;2022-10-23T01:00:07;6.78;;;2.30;;
61702;SDS011;47622;47.726;3.298;2022-10-23T01:02:36;8.40;;;2.50;;
61702;SDS011;47622;47.726;3.298;2022-10-23T01:05:02;7.72;;;3.53;;
61702;SDS011;47622;47.726;3.298;2022-10-23T01:07:29;5.45;;;2.78;;
61702;SDS011;47622;47.726;3.298;2022-10-23T01:10:15;8.35;;;3.15;;
61702;SDS011;47622;47.726;3.298;2022-10-23T01:15:31;4.28;;;2.30;;
61702;SDS011;47622;47.726;3.298;2022-10-23T01:18:06;9.63;;;2.72;;
61702;SDS011;47622;47.726;3.298;2022-10-23T01:20:49;3.33;;;2.13;;
61702;SDS011;47622;47.726;3.298;2022-10-23T01:26:25;3.60;;;2.22;;
61702;SDS011;47622;47.726;3.298;2022-10-23T01:28:55;8.02;;;2.60;;
61702;SDS011;47622;47.726;3.298;2022-10-23T01:31:29;6.40;;;2.78;;
61702;SDS011;47622;47.726;3.298;2022-10-23T01:34:02;3.90;;;2.10;;
61702;SDS011;47622;47.726;3.298;2022-10-23T01:36:34;9.52;;;2.83;;
61702;SDS011;47622;47.726;3.298;2022-10-23T01:42:02;11.82;;;3.15;;
61702;SDS011;47622;47.726;3.298;2022-10-23T01:44:40;7.78;;;2.78;;
61702;SDS011;47622;47.726;3.298;2022-10-23T01:47:14;5.78;;;2.60;;
61702;SDS011;47622;47.726;3.298;2022-10-23T01:49:42;7.18;;;2.90;;
61702;SDS011;47622;47.726;3.298;2022-10-23T01:52:10;5.40;;;2.60;;
61702;SDS011;47622;47.726;3.298;2022-10-23T01:54:38;6.57;;;2.17;;
61702;SDS011;47622;47.726;3.298;2022-10-23T01:57:07;7.07;;;2.88;;
61702;SDS011;47622;47.726;3.298;2022-10-23T01:59:39;6.10;;;2.55;;
61702;SDS011;47622;47.726;3.298;2022-10-23T02:02:09;5.80;;;2.72;;
61702;SDS011;47622;47.726;3.298;2022-10-23T02:04:37;5.03;;;2.10;;
61702;SDS011;47622;47.726;3.298;2022-10-23T02:07:06;6.05;;;2.58;;
61702;SDS011;47622;47.726;3.298;2022-10-23T02:09:32;6.15;;;2.42;;
61702;SDS011;47622;47.726;3.298;2022-10-23T02:12:01;4.28;;;2.50;;
61702;SDS011;47622;47.726;3.298;2022-10-23T02:17:33;7.82;;;2.50;;
61702;SDS011;47622;47.726;3.298;2022-10-23T02:20:12;5.57;;;3.05;;
61702;SDS011;47622;47.726;3.298;2022-10-23T02:23:20;7.85;;;2.83;;
61702;SDS011;47622;47.726;3.298;2022-10-23T02:25:52;5.32;;;2.95;;
61702;SDS011;47622;47.726;3.298;2022-10-23T02:28:23;4.88;;;2.53;;
61702;SDS011;47622;47.726;3.298;2022-10-23T02:30:53;4.80;;;2.70;;
61702;SDS011;47622;47.726;3.298;2022-10-23T02:33:21;6.75;;;2.80;;
61702;SDS011;47622;47.726;3.298;2022-10-23T02:35:50;6.57;;;3.15;;
61702;SDS011;47622;47.726;3.298;2022-10-23T02:38:33;8.55;;;3.40;;
61702;SDS011;47622;47.726;3.298;2022-10-23T02:43:40;7.57;;;3.08;;
61702;SDS011;47622;47.726;3.298;2022-10-23T02:54:30;6.28;;;3.00;;
61702;SDS011;47622;47.726;3.298;2022-10-23T02:57:02;8.07;;;3.83;;
61702;SDS011;47622;47.726;3.298;2022-10-23T02:59:40;6.90;;;3.33;;
61702;SDS011;47622;47.726;3.298;2022-10-23T03:04:44;5.65;;;3.40;;
61702;SDS011;47622;47.726;3.298;2022-10-23T03:07:14;8.32;;;3.60;;
61702;SDS011;47622;47.726;3.298;2022-10-23T03:09:43;9.93;;;3.80;;
61702;SDS011;47622;47.726;3.298;2022-10-23T03:12:08;9.23;;;3.33;;
61702;SDS011;47622;47.726;3.298;2022-10-23T03:14:34;11.70;;;4.68;;
61702;SDS011;47622;47.726;3.298;2022-10-23T03:16:59;9.65;;;3.75;;
61702;SDS011;47622;47.726;3.298;2022-10-23T03:19:25;9.38;;;3.90;;
61702;SDS011;47622;47.726;3.298;2022-10-23T03:21:51;10.15;;;3.90;;
61702;SDS011;47622;47.726;3.298;2022-10-23T03:24:16;9.73;;;3.90;;
61702;SDS011;47622;47.726;3.298;2022-10-23T03:26:42;9.55;;;3.55;;
61702;SDS011;47622;47.726;3.298;2022-10-23T03:29:08;9.50;;;4.00;;
61702;SDS011;47622;47.726;3.298;2022-10-23T03:31:33;11.13;;;4.05;;
61702;SDS011;47622;47.726;3.298;2022-10-23T03:33:59;8.52;;;4.05;;
61702;SDS011;47622;47.726;3.298;2022-10-23T03:36:24;10.85;;;4.55;;
61702;SDS011;47622;47.726;3.298;2022-10-23T03:38:50;11.98;;;4.07;;
61702;SDS011;47622;47.726;3.298;2022-10-23T03:41:16;9.77;;;4.15;;
61702;SDS011;47622;47.726;3.298;2022-10-23T03:43:42;7.85;;;4.80;;
61702;SDS011;47622;47.726;3.298;2022-10-23T03:46:08;11.52;;;4.45;;
61702;SDS011;47622;47.726;3.298;2022-10-23T03:48:36;12.75;;;4.10;;
61702;SDS011;47622;47.726;3.298;2022-10-23T03:51:06;10.30;;;4.68;;
61702;SDS011;47622;47.726;3.298;2022-10-23T03:53:32;9.55;;;4.00;;
61702;SDS011;47622;47.726;3.298;2022-10-23T03:55:58;7.20;;;4.00;;
61702;SDS011;47622;47.726;3.298;2022-10-23T03:58:23;9.75;;;3.88;;
61702;SDS011;47622;47.726;3.298;2022-10-23T04:00:49;9.23;;;4.13;;
61702;SDS011;47622;47.726;3.298;2022-10-23T04:03:15;6.78;;;3.65;;
61702;SDS011;47622;47.726;3.298;2022-10-23T04:05:41;10.32;;;3.80;;
61702;SDS011;47622;47.726;3.298;2022-10-23T04:08:07;13.77;;;4.35;;
61702;SDS011;47622;47.726;3.298;2022-10-23T04:10:32;9.98;;;4.10;;
61702;SDS011;47622;47.726;3.298;2022-10-23T04:12:58;6.30;;;3.63;;
61702;SDS011;47622;47.726;3.298;2022-10-23T04:15:24;8.93;;;3.65;;
61702;SDS011;47622;47.726;3.298;2022-10-23T04:17:50;9.18;;;4.43;;
61702;SDS011;47622;47.726;3.298;2022-10-23T04:20:15;9.50;;;4.50;;
61702;SDS011;47622;47.726;3.298;2022-10-23T04:22:41;11.27;;;4.18;;
61702;SDS011;47622;47.726;3.298;2022-10-23T04:25:07;8.50;;;3.85;;
61702;SDS011;47622;47.726;3.298;2022-10-23T04:27:32;11.43;;;4.45;;
61702;SDS011;47622;47.726;3.298;2022-10-23T04:29:58;9.60;;;3.92;;
61702;SDS011;47622;47.726;3.298;2022-10-23T04:32:24;10.40;;;4.22;;
61702;SDS011;47622;47.726;3.298;2022-10-23T04:34:50;10.48;;;5.53;;
61702;SDS011;47622;47.726;3.298;2022-10-23T04:37:16;9.60;;;4.07;;
61702;SDS011;47622;47.726;3.298;2022-10-23T04:39:42;9.35;;;3.97;;
61702;SDS011;47622;47.726;3.298;2022-10-23T04:42:07;9.93;;;4.00;;
61702;SDS011;47622;47.726;3.298;2022-10-23T04:44:33;7.45;;;3.83;;
61702;SDS011;47622;47.726;3.298;2022-10-23T04:46:58;8.73;;;4.00;;
61702;SDS011;47622;47.726;3.298;2022-10-23T04:49:24;9.75;;;4.68;;
61702;SDS011;47622;47.726;3.298;2022-10-23T04:51:50;8.38;;;4.13;;
61702;SDS011;47622;47.726;3.298;2022-10-23T04:54:15;8.32;;;4.10;;
61702;SDS011;47622;47.726;3.298;2022-10-23T04:56:41;10.10;;;4.15;;
61702;SDS011;47622;47.726;3.298;2022-10-23T04:59:07;7.93;;;3.92;;
61702;SDS011;47622;47.726;3.298;2022-10-23T05:01:34;8.50;;;4.15;;
61702;SDS011;47622;47.726;3.298;2022-10-23T05:03:59;4.25;;;3.55;;
61702;SDS011;47622;47.726;3.298;2022-10-23T05:06:25;6.63;;;3.80;;
61702;SDS011;47622;47.726;3.298;2022-10-23T05:08:51;7.82;;;4.30;;
61702;SDS011;47622;47.726;3.298;2022-10-23T05:11:16;7.40;;;4.05;;
61702;SDS011;47622;47.726;3.298;2022-10-23T05:13:42;8.25;;;3.78;;
61702;SDS011;47622;47.726;3.298;2022-10-23T05:16:08;7.57;;;4.20;;
61702;SDS011;47622;47.726;3.298;2022-10-23T05:21:21;6.60;;;3.90;;
61702;SDS011;47622;47.726;3.298;2022-10-23T05:23:52;8.75;;;3.85;;
61702;SDS011;47622;47.726;3.298;2022-10-23T05:26:18;10.25;;;3.83;;
61702;SDS011;47622;47.726;3.298;2022-10-23T05:28:44;7.28;;;3.67;;
61702;SDS011;47622;47.726;3.298;2022-10-23T05:31:10;7.63;;;3.53;;
61702;SDS011;47622;47.726;3.298;2022-10-23T05:33:37;8.35;;;3.97;;
61702;SDS011;47622;47.726;3.298;2022-10-23T05:36:03;9.10;;;3.72;;
61702;SDS011;47622;47.726;3.298;2022-10-23T05:38:30;9.02;;;3.97;;
61702;SDS011;47622;47.726;3.298;2022-10-23T05:40:58;7.43;;;3.60;;
61702;SDS011;47622;47.726;3.298;2022-10-23T05:43:24;7.30;;;3.65;;
61702;SDS011;47622;47.726;3.298;2022-10-23T05:45:51;9.32;;;4.13;;
61702;SDS011;47622;47.726;3.298;2022-10-23T05:48:17;9.15;;;4.05;;
61702;SDS011;47622;47.726;3.298;2022-10-23T05:50:43;8.88;;;3.78;;
61702;SDS011;47622;47.726;3.298;2022-10-23T05:53:09;5.70;;;3.63;;
61702;SDS011;47622;47.726;3.298;2022-10-23T05:55:35;16.35;;;4.85;;
61702;SDS011;47622;47.726;3.298;2022-10-23T05:58:02;8.13;;;3.55;;
61702;SDS011;47622;47.726;3.298;2022-10-23T06:00:28;8.95;;;4.20;;
61702;SDS011;47622;47.726;3.298;2022-10-23T06:02:54;8.20;;;4.20;;
61702;SDS011;47622;47.726;3.298;2022-10-23T06:05:19;11.85;;;4.03;;
61702;SDS011;47622;47.726;3.298;2022-10-23T06:07:45;7.03;;;3.78;;
61702;SDS011;47622;47.726;3.298;2022-10-23T06:10:11;8.43;;;3.83;;
61702;SDS011;47622;47.726;3.298;2022-10-23T06:12:37;7.53;;;3.90;;
61702;SDS011;47622;47.726;3.298;2022-10-23T06:15:03;8.57;;;4.35;;
61702;SDS011;47622;47.726;3.298;2022-10-23T06:17:29;9.73;;;3.50;;
61702;SDS011;47622;47.726;3.298;2022-10-23T06:19:55;7.88;;;3.88;;
61702;SDS011;47622;47.726;3.298;2022-10-23T06:22:29;10.23;;;3.70;;
61702;SDS011;47622;47.726;3.298;2022-10-23T06:24:55;6.18;;;3.83;;
61702;SDS011;47622;47.726;3.298;2022-10-23T06:27:21;7.93;;;4.28;;
61702;SDS011;47622;47.726;3.298;2022-10-23T06:29:46;9.38;;;3.90;;
61702;SDS011;47622;47.726;3.298;2022-10-23T06:32:12;7.38;;;3.60;;
61702;SDS011;47622;47.726;3.298;2022-10-23T06:34:38;8.75;;;4.13;;
61702;SDS011;47622;47.726;3.298;2022-10-23T06:37:04;10.63;;;3.60;;
61702;SDS011;47622;47.726;3.298;2022-10-23T06:39:30;6.60;;;3.72;;
61702;SDS011;47622;47.726;3.298;2022-10-23T06:41:56;9.07;;;4.00;;
61702;SDS011;47622;47.726;3.298;2022-10-23T06:44:22;14.55;;;4.47;;
61702;SDS011;47622;47.726;3.298;2022-10-23T06:46:47;12.70;;;3.80;;
61702;SDS011;47622;47.726;3.298;2022-10-23T06:49:14;8.40;;;3.75;;
61702;SDS011;47622;47.726;3.298;2022-10-23T06:51:40;8.48;;;4.32;;
61702;SDS011;47622;47.726;3.298;2022-10-23T06:54:06;8.35;;;3.83;;
61702;SDS011;47622;47.726;3.298;2022-10-23T06:56:32;6.68;;;3.67;;
61702;SDS011;47622;47.726;3.298;2022-10-23T06:58:59;17.00;;;4.03;;
61702;SDS011;47622;47.726;3.298;2022-10-23T07:01:25;9.07;;;3.60;;
61702;SDS011;47622;47.726;3.298;2022-10-23T07:03:51;10.02;;;3.17;;
61702;SDS011;47622;47.726;3.298;2022-10-23T07:06:16;7.97;;;3.95;;
61702;SDS011;47622;47.726;3.298;2022-10-23T07:08:42;9.43;;;3.42;;
61702;SDS011;47622;47.726;3.298;2022-10-23T07:11:09;8.15;;;3.67;;
61702;SDS011;47622;47.726;3.298;2022-10-23T07:13:36;9.50;;;3.88;;
61702;SDS011;47622;47.726;3.298;2022-10-23T07:16:09;7.05;;;3.60;;
61702;SDS011;47622;47.726;3.298;2022-10-23T07:18:36;7.28;;;3.60;;
61702;SDS011;47622;47.726;3.298;2022-10-23T07:21:02;8.60;;;3.67;;
61702;SDS011;47622;47.726;3.298;2022-10-23T07:23:28;4.35;;;3.30;;
61702;SDS011;47622;47.726;3.298;2022-10-23T07:25:54;5.78;;;3.67;;
61702;SDS011;47622;47.726;3.298;2022-10-23T07:28:19;9.85;;;3.30;;
61702;SDS011;47622;47.726;3.298;2022-10-23T07:30:54;6.65;;;3.13;;
61702;SDS011;47622;47.726;3.298;2022-10-23T07:33:23;10.60;;;4.13;;
61702;SDS011;47622;47.726;3.298;2022-10-23T07:35:49;8.10;;;3.20;;
61702;SDS011;47622;47.726;3.298;2022-10-23T07:38:15;5.72;;;3.33;;
61702;SDS011;47622;47.726;3.298;2022-10-23T07:40:41;7.20;;;3.58;;
61702;SDS011;47622;47.726;3.298;2022-10-23T07:43:07;12.45;;;3.50;;
61702;SDS011;47622;47.726;3.298;2022-10-23T07:45:33;4.55;;;3.42;;
61702;SDS011;47622;47.726;3.298;2022-10-23T07:47:59;8.98;;;3.38;;
61702;SDS011;47622;47.726;3.298;2022-10-23T07:50:24;7.18;;;3.63;;
61702;SDS011;47622;47.726;3.298;2022-10-23T07:52:50;8.93;;;3.45;;
61702;SDS011;47622;47.726;3.298;2022-10-23T07:55:16;5.75;;;3.80;;
61702;SDS011;47622;47.726;3.298;2022-10-23T07:57:42;5.95;;;3.40;;
61702;SDS011;47622;47.726;3.298;2022-10-23T08:00:09;7.72;;;3.70;;
61702;SDS011;47622;47.726;3.298;2022-10-23T08:02:35;12.13;;;3.25;;
61702;SDS011;47622;47.726;3.298;2022-10-23T08:05:02;7.35;;;3.35;;
61702;SDS011;47622;47.726;3.298;2022-10-23T08:07:28;8.82;;;3.38;;
61702;SDS011;47622;47.726;3.298;2022-10-23T08:09:53;10.55;;;3.83;;
61702;SDS011;47622;47.726;3.298;2022-10-23T08:12:19;7.07;;;3.63;;
61702;SDS011;47622;47.726;3.298;2022-10-23T08:14:45;5.07;;;3.13;;
61702;SDS011;47622;47.726;3.298;2022-10-23T08:17:10;6.95;;;3.17;;
61702;SDS011;47622;47.726;3.298;2022-10-23T08:19:36;7.05;;;3.20;;
61702;SDS011;47622;47.726;3.298;2022-10-23T08:22:01;10.00;;;3.22;;
61702;SDS011;47622;47.726;3.298;2022-10-23T08:24:28;8.10;;;3.30;;
61702;SDS011;47622;47.726;3.298;2022-10-23T08:26:53;4.05;;;2.90;;
61702;SDS011;47622;47.726;3.298;2022-10-23T08:29:19;9.60;;;3.63;;
61702;SDS011;47622;47.726;3.298;2022-10-23T08:31:45;5.63;;;3.60;;
61702;SDS011;47622;47.726;3.298;2022-10-23T08:34:11;8.93;;;3.50;;
61702;SDS011;47622;47.726;3.298;2022-10-23T08:36:36;6.60;;;3.28;;
61702;SDS011;47622;47.726;3.298;2022-10-23T08:39:03;7.13;;;3.10;;
61702;SDS011;47622;47.726;3.298;2022-10-23T08:41:37;4.47;;;2.72;;
61702;SDS011;47622;47.726;3.298;2022-10-23T08:44:25;8.35;;;3.50;;
61702;SDS011;47622;47.726;3.298;2022-10-23T08:47:06;6.82;;;3.22;;
61702;SDS011;47622;47.726;3.298;2022-10-23T08:55:14;6.88;;;3.35;;
61702;SDS011;47622;47.726;3.298;2022-10-23T08:58:14;5.90;;;2.88;;
61702;SDS011;47622;47.726;3.298;2022-10-23T09:00:56;5.68;;;2.75;;
61702;SDS011;47622;47.726;3.298;2022-10-23T09:03:22;4.50;;;2.47;;
61702;SDS011;47622;47.726;3.298;2022-10-23T09:08:43;9.05;;;2.97;;
61702;SDS011;47622;47.726;3.298;2022-10-23T09:14:03;6.72;;;3.10;;
61702;SDS011;47622;47.726;3.298;2022-10-23T09:19:44;5.85;;;2.40;;
61702;SDS011;47622;47.726;3.298;2022-10-23T09:22:10;7.35;;;2.38;;
61702;SDS011;47622;47.726;3.298;2022-10-23T09:24:40;9.18;;;3.10;;
61702;SDS011;47622;47.726;3.298;2022-10-23T09:27:08;7.15;;;2.65;;
61702;SDS011;47622;47.726;3.298;2022-10-23T09:29:45;7.20;;;2.80;;
61702;SDS011;47622;47.726;3.298;2022-10-23T09:32:18;8.68;;;2.92;;
61702;SDS011;47622;47.726;3.298;2022-10-23T09:34:56;7.40;;;2.83;;
61702;SDS011;47622;47.726;3.298;2022-10-23T09:37:23;7.43;;;3.50;;
61702;SDS011;47622;47.726;3.298;2022-10-23T09:45:36;7.95;;;2.70;;
61702;SDS011;47622;47.726;3.298;2022-10-23T09:48:15;9.43;;;3.03;;
61702;SDS011;47622;47.726;3.298;2022-10-23T09:50:47;7.25;;;3.05;;
61702;SDS011;47622;47.726;3.298;2022-10-23T09:53:16;8.55;;;2.92;;
61702;SDS011;47622;47.726;3.298;2022-10-23T09:56:03;11.95;;;3.88;;
61702;SDS011;47622;47.726;3.298;2022-10-23T09:59:02;7.47;;;3.20;;
61702;SDS011;47622;47.726;3.298;2022-10-23T10:01:45;14.25;;;3.70;;
61702;SDS011;47622;47.726;3.298;2022-10-23T10:04:12;10.57;;;3.05;;
61702;SDS011;47622;47.726;3.298;2022-10-23T10:06:38;13.60;;;2.85;;
61702;SDS011;47622;47.726;3.298;2022-10-23T10:09:06;9.30;;;3.17;;
61702;SDS011;47622;47.726;3.298;2022-10-23T10:17:32;9.93;;;3.40;;
61702;SDS011;47622;47.726;3.298;2022-10-23T10:25:30;12.93;;;3.00;;
61702;SDS011;47622;47.726;3.298;2022-10-23T10:28:19;7.50;;;2.85;;
61702;SDS011;47622;47.726;3.298;2022-10-23T10:31:09;9.02;;;3.28;;
61702;SDS011;47622;47.726;3.298;2022-10-23T10:39:10;14.82;;;3.88;;
61702;SDS011;47622;47.726;3.298;2022-10-23T10:50:24;10.25;;;3.80;;
61702;SDS011;47622;47.726;3.298;2022-10-23T10:53:07;6.88;;;3.40;;
61702;SDS011;47622;47.726;3.298;2022-10-23T10:55:48;8.05;;;4.18;;
61702;SDS011;47622;47.726;3.298;2022-10-23T10:58:22;13.52;;;4.22;;
61702;SDS011;47622;47.726;3.298;2022-10-23T11:00:51;12.68;;;3.75;;
61702;SDS011;47622;47.726;3.298;2022-10-23T11:03:29;14.83;;;4.47;;
61702;SDS011;47622;47.726;3.298;2022-10-23T11:06:03;11.82;;;3.92;;
61702;SDS011;47622;47.726;3.298;2022-10-23T11:08:39;12.77;;;3.63;;
61702;SDS011;47622;47.726;3.298;2022-10-23T11:11:09;15.23;;;3.97;;
61702;SDS011;47622;47.726;3.298;2022-10-23T11:13:41;12.20;;;3.50;;
61702;SDS011;47622;47.726;3.298;2022-10-23T11:18:38;11.27;;;4.13;;
61702;SDS011;47622;47.726;3.298;2022-10-23T11:21:22;10.30;;;3.60;;
61702;SDS011;47622;47.726;3.298;2022-10-23T11:24:00;16.05;;;4.40;;
61702;SDS011;47622;47.726;3.298;2022-10-23T11:26:50;14.90;;;3.42;;
61702;SDS011;47622;47.726;3.298;2022-10-23T11:29:42;13.80;;;3.63;;
61702;SDS011;47622;47.726;3.298;2022-10-23T11:32:36;14.07;;;4.22;;
61702;SDS011;47622;47.726;3.298;2022-10-23T11:38:23;15.38;;;4.22;;
61702;SDS011;47622;47.726;3.298;2022-10-23T11:40:56;14.65;;;4.15;;
61702;SDS011;47622;47.726;3.298;2022-10-23T11:43:27;15.85;;;4.15;;
61702;SDS011;47622;47.726;3.298;2022-10-23T11:45:56;10.38;;;3.40;;
61702;SDS011;47622;47.726;3.298;2022-10-23T11:48:34;12.38;;;3.65;;
61702;SDS011;47622;47.726;3.298;2022-10-23T11:51:02;8.10;;;4.53;;
61702;SDS011;47622;47.726;3.298;2022-10-23T11:55:59;12.13;;;3.80;;
61702;SDS011;47622;47.726;3.298;2022-10-23T11:58:46;10.18;;;4.57;;
61702;SDS011;47622;47.726;3.298;2022-10-23T12:06:38;13.90;;;4.15;;
61702;SDS011;47622;47.726;3.298;2022-10-23T12:09:43;15.73;;;4.30;;
61702;SDS011;47622;47.726;3.298;2022-10-23T12:12:16;11.13;;;4.00;;
61702;SDS011;47622;47.726;3.298;2022-10-23T12:17:39;9.30;;;3.83;;
61702;SDS011;47622;47.726;3.298;2022-10-23T12:22:37;13.68;;;3.75;;
61702;SDS011;47622;47.726;3.298;2022-10-23T12:25:27;13.45;;;4.03;;
61702;SDS011;47622;47.726;3.298;2022-10-23T12:30:53;14.65;;;4.65;;
61702;SDS011;47622;47.726;3.298;2022-10-23T12:36:20;17.83;;;5.28;;
61702;SDS011;47622;47.726;3.298;2022-10-23T12:38:56;22.92;;;5.43;;
61702;SDS011;47622;47.726;3.298;2022-10-23T12:41:27;17.15;;;4.90;;
61702;SDS011;47622;47.726;3.298;2022-10-23T12:44:00;15.55;;;4.70;;
61702;SDS011;47622;47.726;3.298;2022-10-23T12:49:12;18.58;;;4.95;;
61702;SDS011;47622;47.726;3.298;2022-10-23T12:51:39;17.35;;;5.28;;
61702;SDS011;47622;47.726;3.298;2022-10-23T12:54:13;13.75;;;5.05;;
61702;SDS011;47622;47.726;3.298;2022-10-23T12:56:40;18.98;;;5.15;;
61702;SDS011;47622;47.726;3.298;2022-10-23T12:59:18;15.20;;;4.88;;
61702;SDS011;47622;47.726;3.298;2022-10-23T13:01:47;10.15;;;5.18;;
61702;SDS011;47622;47.726;3.298;2022-10-23T13:04:24;17.15;;;5.38;;
61702;SDS011;47622;47.726;3.298;2022-10-23T13:07:00;15.75;;;5.95;;
61702;SDS011;47622;47.726;3.298;2022-10-23T13:09:28;19.30;;;5.90;;
61702;SDS011;47622;47.726;3.298;2022-10-23T13:11:59;14.60;;;5.03;;
61702;SDS011;47622;47.726;3.298;2022-10-23T13:14:29;13.15;;;5.25;;
61702;SDS011;47622;47.726;3.298;2022-10-23T13:16:59;13.95;;;4.30;;
61702;SDS011;47622;47.726;3.298;2022-10-23T13:19:26;14.35;;;4.70;;
61702;SDS011;47622;47.726;3.298;2022-10-23T13:21:52;14.25;;;5.05;;
61702;SDS011;47622;47.726;3.298;2022-10-23T13:24:18;19.15;;;5.60;;
61702;SDS011;47622;47.726;3.298;2022-10-23T13:26:46;24.02;;;6.05;;
61702;SDS011;47622;47.726;3.298;2022-10-23T13:29:16;15.52;;;6.10;;
61702;SDS011;47622;47.726;3.298;2022-10-23T13:31:57;19.10;;;6.67;;
61702;SDS011;47622;47.726;3.298;2022-10-23T13:34:33;16.52;;;6.43;;
61702;SDS011;47622;47.726;3.298;2022-10-23T13:39:30;18.65;;;6.15;;
61702;SDS011;47622;47.726;3.298;2022-10-23T13:42:08;17.40;;;5.63;;
61702;SDS011;47622;47.726;3.298;2022-10-23T13:44:37;19.58;;;5.78;;
61702;SDS011;47622;47.726;3.298;2022-10-23T13:47:03;18.33;;;6.13;;
61702;SDS011;47622;47.726;3.298;2022-10-23T13:49:29;19.40;;;5.45;;
61702;SDS011;47622;47.726;3.298;2022-10-23T13:51:55;16.08;;;5.32;;
61702;SDS011;47622;47.726;3.298;2022-10-23T13:54:22;16.45;;;4.63;;
61702;SDS011;47622;47.726;3.298;2022-10-23T13:56:50;13.80;;;4.13;;
61702;SDS011;47622;47.726;3.298;2022-10-23T13:59:17;16.63;;;4.88;;
61702;SDS011;47622;47.726;3.298;2022-10-23T14:01:43;16.08;;;4.53;;
61702;SDS011;47622;47.726;3.298;2022-10-23T14:04:10;11.05;;;3.83;;
61702;SDS011;47622;47.726;3.298;2022-10-23T14:06:36;11.38;;;3.85;;
61702;SDS011;47622;47.726;3.298;2022-10-23T14:09:04;11.43;;;3.70;;
61702;SDS011;47622;47.726;3.298;2022-10-23T14:11:31;12.35;;;4.35;;
61702;SDS011;47622;47.726;3.298;2022-10-23T14:13:57;10.73;;;3.50;;
61702;SDS011;47622;47.726;3.298;2022-10-23T14:16:24;16.38;;;3.60;;
61702;SDS011;47622;47.726;3.298;2022-10-23T14:18:50;15.40;;;3.10;;
61702;SDS011;47622;47.726;3.298;2022-10-23T14:21:17;9.45;;;3.03;;
61702;SDS011;47622;47.726;3.298;2022-10-23T14:23:44;14.73;;;2.95;;
61702;SDS011;47622;47.726;3.298;2022-10-23T14:26:11;9.85;;;3.05;;
61702;SDS011;47622;47.726;3.298;2022-10-23T14:28:38;13.95;;;3.40;;
61702;SDS011;47622;47.726;3.298;2022-10-23T14:31:05;8.15;;;2.53;;
61702;SDS011;47622;47.726;3.298;2022-10-23T14:33:32;9.45;;;2.30;;
61702;SDS011;47622;47.726;3.298;2022-10-23T14:35:58;8.10;;;2.40;;
61702;SDS011;47622;47.726;3.298;2022-10-23T14:38:23;6.72;;;2.65;;
61702;SDS011;47622;47.726;3.298;2022-10-23T14:40:49;9.52;;;2.70;;
61702;SDS011;47622;47.726;3.298;2022-10-23T14:43:15;11.43;;;2.38;;
61702;SDS011;47622;47.726;3.298;2022-10-23T14:45:41;8.45;;;1.95;;
61702;SDS011;47622;47.726;3.298;2022-10-23T14:48:06;7.75;;;2.03;;
61702;SDS011;47622;47.726;3.298;2022-10-23T14:50:33;6.53;;;2.03;;
61702;SDS011;47622;47.726;3.298;2022-10-23T14:53:00;10.48;;;2.10;;
61702;SDS011;47622;47.726;3.298;2022-10-23T14:55:26;5.82;;;1.98;;
61702;SDS011;47622;47.726;3.298;2022-10-23T14:57:54;6.65;;;1.85;;
61702;SDS011;47622;47.726;3.298;2022-10-23T15:00:21;9.93;;;2.25;;
61702;SDS011;47622;47.726;3.298;2022-10-23T15:02:47;5.65;;;2.00;;
61702;SDS011;47622;47.726;3.298;2022-10-23T15:05:13;8.38;;;2.15;;
61702;SDS011;47622;47.726;3.298;2022-10-23T15:07:39;5.38;;;1.70;;
61702;SDS011;47622;47.726;3.298;2022-10-23T15:10:05;8.88;;;2.10;;
61702;SDS011;47622;47.726;3.298;2022-10-23T15:12:33;6.10;;;2.13;;
61702;SDS011;47622;47.726;3.298;2022-10-23T15:14:59;8.27;;;2.15;;
61702;SDS011;47622;47.726;3.298;2022-10-23T15:17:25;4.97;;;1.63;;
61702;SDS011;47622;47.726;3.298;2022-10-23T15:21:45;9.60;;;1.85;;
61702;SDS011;47622;47.726;3.298;2022-10-23T15:24:11;10.93;;;2.10;;
61702;SDS011;47622;47.726;3.298;2022-10-23T15:26:37;7.32;;;2.50;;
61702;SDS011;47622;47.726;3.298;2022-10-23T15:29:03;7.70;;;1.80;;
61702;SDS011;47622;47.726;3.298;2022-10-23T15:34:03;6.53;;;2.10;;
61702;SDS011;47622;47.726;3.298;2022-10-23T15:36:29;6.80;;;2.20;;
61702;SDS011;47622;47.726;3.298;2022-10-23T15:38:55;9.35;;;2.47;;
61702;SDS011;47622;47.726;3.298;2022-10-23T15:41:29;3.83;;;1.98;;
61702;SDS011;47622;47.726;3.298;2022-10-23T15:43:56;5.70;;;1.90;;
61702;SDS011;47622;47.726;3.298;2022-10-23T15:46:22;9.25;;;2.28;;
61702;SDS011;47622;47.726;3.298;2022-10-23T15:48:48;11.57;;;2.00;;
61702;SDS011;47622;47.726;3.298;2022-10-23T15:51:14;9.02;;;2.35;;
61702;SDS011;47622;47.726;3.298;2022-10-23T15:53:39;8.43;;;2.10;;
61702;SDS011;47622;47.726;3.298;2022-10-23T15:56:05;9.45;;;3.05;;
61702;SDS011;47622;47.726;3.298;2022-10-23T15:58:31;7.72;;;2.67;;
61702;SDS011;47622;47.726;3.298;2022-10-23T16:00:56;6.25;;;2.00;;
61702;SDS011;47622;47.726;3.298;2022-10-23T16:03:23;9.10;;;1.92;;
61702;SDS011;47622;47.726;3.298;2022-10-23T16:05:48;10.32;;;2.05;;
61702;SDS011;47622;47.726;3.298;2022-10-23T16:08:14;6.90;;;2.10;;
61702;SDS011;47622;47.726;3.298;2022-10-23T16:10:40;6.88;;;2.22;;
61702;SDS011;47622;47.726;3.298;2022-10-23T16:13:07;8.25;;;2.22;;
61702;SDS011;47622;47.726;3.298;2022-10-23T16:15:36;12.75;;;1.90;;
61702;SDS011;47622;47.726;3.298;2022-10-23T16:18:02;10.85;;;2.28;;
61702;SDS011;47622;47.726;3.298;2022-10-23T16:20:28;8.82;;;2.22;;
61702;SDS011;47622;47.726;3.298;2022-10-23T16:22:54;10.82;;;2.10;;
61702;SDS011;47622;47.726;3.298;2022-10-23T16:25:19;5.93;;;2.45;;
61702;SDS011;47622;47.726;3.298;2022-10-23T16:27:46;14.30;;;2.72;;
61702;SDS011;47622;47.726;3.298;2022-10-23T16:30:12;10.35;;;2.20;;
61702;SDS011;47622;47.726;3.298;2022-10-23T16:32:40;9.20;;;2.20;;
61702;SDS011;47622;47.726;3.298;2022-10-23T16:35:06;11.80;;;2.78;;
61702;SDS011;47622;47.726;3.298;2022-10-23T16:37:32;7.80;;;2.10;;
61702;SDS011;47622;47.726;3.298;2022-10-23T16:39:58;9.48;;;2.65;;
61702;SDS011;47622;47.726;3.298;2022-10-23T16:42:25;12.32;;;3.10;;
61702;SDS011;47622;47.726;3.298;2022-10-23T16:44:50;8.10;;;3.38;;